KPUC

Carbon County Regional / Buck Davis Field Airport

Price, Utah, USA
METAR KPUC 160153Z AUTO 03009KT 10SM CLR M02/M07 A3033 RMK AO2 SLP324 T10221072 $
Observed Flight Rules
Dec-16 @ 01:53 UTC (20 minutes ago) Visual Flight Rules
Wind Visibility Clouds
30° at 9 knots 10 miles
  • Clear skies
Temperatures Readings
Current -2°C / 28°F
Dewpoint -7°C / 19°F
Humidity 69%
Altimeter 30.33" Hg
Pressure 1032.4 hPa
Elevation 2091
METAR KPUC 160153Z AUTO 03009KT 10SM CLR M02/M07 A3033 RMK AO2 SLP324 T10221072 $
Observed Flight Rules
Dec-16 @ 01:53 UTC
(20 minutes ago)
VFR
Wind Visibility
30° at 9 knots 10 miles
Clouds
  • Clear skies
Temperature Dewpoint
-2°C / 28°F -7°C / 19°F
Humidity Altimeter Pressure
69% 30.33" Hg 1032.4 hPa